sensor_id;sensor_type;location;lat;lon;timestamp;pressure;altitude;pressure_sealevel;temperature;humidity
48882;BME280;57063;51.406;-2.402;2023-07-13T00:01:24;100444.53;;;13.89;100.00
48882;BME280;57063;51.406;-2.402;2023-07-13T00:03:50;100439.97;;;13.80;100.00
48882;BME280;57063;51.406;-2.402;2023-07-13T00:06:15;100444.06;;;13.71;100.00
48882;BME280;57063;51.406;-2.402;2023-07-13T00:08:41;100437.72;;;13.75;100.00
48882;BME280;57063;51.406;-2.402;2023-07-13T00:11:06;100437.53;;;13.65;100.00
48882;BME280;57063;51.406;-2.402;2023-07-13T00:13:32;100432.88;;;13.70;100.00
48882;BME280;57063;51.406;-2.402;2023-07-13T00:15:58;100437.97;;;13.59;100.00
48882;BME280;57063;51.406;-2.402;2023-07-13T00:18:23;100436.84;;;13.63;100.00
48882;BME280;57063;51.406;-2.402;2023-07-13T00:20:49;100435.16;;;13.62;100.00
48882;BME280;57063;51.406;-2.402;2023-07-13T00:23:15;100435.38;;;13.59;100.00
48882;BME280;57063;51.406;-2.402;2023-07-13T00:25:42;100425.00;;;13.59;100.00
48882;BME280;57063;51.406;-2.402;2023-07-13T00:28:08;100430.38;;;13.69;100.00
48882;BME280;57063;51.406;-2.402;2023-07-13T00:30:33;100433.31;;;13.52;100.00
48882;BME280;57063;51.406;-2.402;2023-07-13T00:32:58;100437.28;;;13.44;100.00
48882;BME280;57063;51.406;-2.402;2023-07-13T00:35:27;100444.53;;;13.52;100.00
48882;BME280;57063;51.406;-2.402;2023-07-13T00:37:52;100438.47;;;13.64;100.00
48882;BME280;57063;51.406;-2.402;2023-07-13T00:40:18;100434.97;;;13.53;100.00
48882;BME280;57063;51.406;-2.402;2023-07-13T00:42:43;100444.53;;;13.52;100.00
48882;BME280;57063;51.406;-2.402;2023-07-13T00:47:37;100445.31;;;13.65;100.00
48882;BME280;57063;51.406;-2.402;2023-07-13T00:50:04;100449.97;;;13.73;100.00
48882;BME280;57063;51.406;-2.402;2023-07-13T00:52:31;100448.44;;;13.70;100.00
48882;BME280;57063;51.406;-2.402;2023-07-13T00:54:57;100454.22;;;13.74;100.00
48882;BME280;57063;51.406;-2.402;2023-07-13T00:57:23;100440.94;;;13.79;100.00
48882;BME280;57063;51.406;-2.402;2023-07-13T00:59:55;100444.88;;;13.72;100.00
48882;BME280;57063;51.406;-2.402;2023-07-13T01:02:24;100441.66;;;13.81;100.00
48882;BME280;57063;51.406;-2.402;2023-07-13T01:04:49;100447.97;;;13.77;100.00
48882;BME280;57063;51.406;-2.402;2023-07-13T01:07:15;100445.13;;;13.68;100.00
48882;BME280;57063;51.406;-2.402;2023-07-13T01:09:40;100436.88;;;13.75;100.00
48882;BME280;57063;51.406;-2.402;2023-07-13T01:12:06;100442.41;;;13.70;100.00
48882;BME280;57063;51.406;-2.402;2023-07-13T01:14:32;100446.97;;;13.66;100.00
48882;BME280;57063;51.406;-2.402;2023-07-13T01:16:58;100444.16;;;13.69;100.00
48882;BME280;57063;51.406;-2.402;2023-07-13T01:22:01;100444.38;;;13.66;100.00
48882;BME280;57063;51.406;-2.402;2023-07-13T01:24:27;100438.47;;;13.64;100.00
48882;BME280;57063;51.406;-2.402;2023-07-13T01:26:52;100440.03;;;13.67;100.00
48882;BME280;57063;51.406;-2.402;2023-07-13T01:29:18;100436.44;;;13.57;100.00
48882;BME280;57063;51.406;-2.402;2023-07-13T01:31:43;100435.16;;;13.62;100.00
48882;BME280;57063;51.406;-2.402;2023-07-13T01:34:09;100435.78;;;13.66;100.00
48882;BME280;57063;51.406;-2.402;2023-07-13T01:36:35;100434.75;;;13.68;100.00
48882;BME280;57063;51.406;-2.402;2023-07-13T01:39:01;100432.88;;;13.58;100.00
48882;BME280;57063;51.406;-2.402;2023-07-13T01:41:27;100426.88;;;13.57;100.00
48882;BME280;57063;51.406;-2.402;2023-07-13T01:43:52;100427.19;;;13.53;100.00
48882;BME280;57063;51.406;-2.402;2023-07-13T01:46:18;100420.47;;;13.50;100.00
48882;BME280;57063;51.406;-2.402;2023-07-13T01:48:43;100428.38;;;13.73;100.00
48882;BME280;57063;51.406;-2.402;2023-07-13T01:51:08;100429.47;;;13.57;100.00
48882;BME280;57063;51.406;-2.402;2023-07-13T01:53:34;100433.41;;;13.50;100.00
48882;BME280;57063;51.406;-2.402;2023-07-13T01:55:59;100432.69;;;13.48;100.00
48882;BME280;57063;51.406;-2.402;2023-07-13T01:58:24;100419.22;;;13.43;100.00
48882;BME280;57063;51.406;-2.402;2023-07-13T02:00:51;100428.19;;;13.39;100.00
48882;BME280;57063;51.406;-2.402;2023-07-13T02:03:16;100424.84;;;13.37;100.00
48882;BME280;57063;51.406;-2.402;2023-07-13T02:05:44;100420.72;;;13.34;100.00
48882;BME280;57063;51.406;-2.402;2023-07-13T02:08:09;100422.56;;;13.32;100.00
48882;BME280;57063;51.406;-2.402;2023-07-13T02:10:34;100418.81;;;13.36;100.00
48882;BME280;57063;51.406;-2.402;2023-07-13T02:13:00;100418.81;;;13.36;100.00
48882;BME280;57063;51.406;-2.402;2023-07-13T02:15:25;100416.75;;;13.41;100.00
48882;BME280;57063;51.406;-2.402;2023-07-13T02:17:50;100419.22;;;13.43;100.00
48882;BME280;57063;51.406;-2.402;2023-07-13T02:20:16;100419.22;;;13.43;100.00
48882;BME280;57063;51.406;-2.402;2023-07-13T02:22:41;100417.47;;;13.43;100.00
48882;BME280;57063;51.406;-2.402;2023-07-13T02:25:07;100417.25;;;13.46;100.00
48882;BME280;57063;51.406;-2.402;2023-07-13T02:27:32;100410.63;;;13.42;100.00
48882;BME280;57063;51.406;-2.402;2023-07-13T02:29:58;100406.38;;;13.41;100.00
48882;BME280;57063;51.406;-2.402;2023-07-13T02:32:23;100412.63;;;13.39;100.00
48882;BME280;57063;51.406;-2.402;2023-07-13T02:34:51;100409.31;;;13.37;100.00
48882;BME280;57063;51.406;-2.402;2023-07-13T02:37:17;100403.06;;;13.26;100.00
48882;BME280;57063;51.406;-2.402;2023-07-13T02:39:42;100411.75;;;13.25;100.00
48882;BME280;57063;51.406;-2.402;2023-07-13T02:42:08;100399.75;;;13.24;100.00
48882;BME280;57063;51.406;-2.402;2023-07-13T02:44:33;100414.66;;;13.21;100.00
48882;BME280;57063;51.406;-2.402;2023-07-13T02:46:59;100401.09;;;13.17;100.00
48882;BME280;57063;51.406;-2.402;2023-07-13T02:49:24;100410.44;;;13.20;100.00
48882;BME280;57063;51.406;-2.402;2023-07-13T02:51:50;100402.47;;;13.10;100.00
48882;BME280;57063;51.406;-2.402;2023-07-13T02:54:16;100401.22;;;13.03;100.00
48882;BME280;57063;51.406;-2.402;2023-07-13T02:56:41;100409.72;;;13.05;100.00
48882;BME280;57063;51.406;-2.402;2023-07-13T02:59:09;100408.03;;;13.04;100.00
48882;BME280;57063;51.406;-2.402;2023-07-13T03:01:34;100406.81;;;12.97;100.00
48882;BME280;57063;51.406;-2.402;2023-07-13T03:04:00;100409.22;;;13.00;100.00
48882;BME280;57063;51.406;-2.402;2023-07-13T03:06:26;100413.53;;;12.99;100.00
48882;BME280;57063;51.406;-2.402;2023-07-13T03:08:55;100407.25;;;12.91;100.00
48882;BME280;57063;51.406;-2.402;2023-07-13T03:11:20;100416.97;;;13.00;100.00
48882;BME280;57063;51.406;-2.402;2023-07-13T03:13:47;100408.66;;;12.95;100.00
48882;BME280;57063;51.406;-2.402;2023-07-13T03:16:14;100411.47;;;12.92;100.00
48882;BME280;57063;51.406;-2.402;2023-07-13T03:18:41;100404.44;;;12.94;100.00
48882;BME280;57063;51.406;-2.402;2023-07-13T03:21:07;100400.06;;;12.94;100.00
48882;BME280;57063;51.406;-2.402;2023-07-13T03:23:32;100409.31;;;12.98;100.00
48882;BME280;57063;51.406;-2.402;2023-07-13T03:26:06;100410.03;;;13.00;100.00
48882;BME280;57063;51.406;-2.402;2023-07-13T03:28:32;100402.34;;;12.99;100.00
48882;BME280;57063;51.406;-2.402;2023-07-13T03:31:12;100408.25;;;13.01;100.00
48882;BME280;57063;51.406;-2.402;2023-07-13T03:33:38;100409.72;;;13.05;100.00
48882;BME280;57063;51.406;-2.402;2023-07-13T03:36:05;100409.00;;;13.03;100.00
48882;BME280;57063;51.406;-2.402;2023-07-13T03:38:31;100414.28;;;13.01;100.00
48882;BME280;57063;51.406;-2.402;2023-07-13T03:40:57;100419.16;;;12.93;100.00
48882;BME280;57063;51.406;-2.402;2023-07-13T03:43:22;100410.34;;;12.96;100.00
48882;BME280;57063;51.406;-2.402;2023-07-13T03:45:47;100422.03;;;13.01;100.00
48882;BME280;57063;51.406;-2.402;2023-07-13T03:48:13;100421.72;;;13.06;100.00
48882;BME280;57063;51.406;-2.402;2023-07-13T03:50:39;100422.69;;;13.05;100.00
48882;BME280;57063;51.406;-2.402;2023-07-13T03:53:04;100426.81;;;13.07;100.00
48882;BME280;57063;51.406;-2.402;2023-07-13T03:55:30;100432.31;;;13.03;100.00
48882;BME280;57063;51.406;-2.402;2023-07-13T03:58:00;100423.38;;;12.94;100.00
48882;BME280;57063;51.406;-2.402;2023-07-13T04:00:26;100423.19;;;12.97;100.00
48882;BME280;57063;51.406;-2.402;2023-07-13T04:02:51;100425.66;;;12.99;100.00
48882;BME280;57063;51.406;-2.402;2023-07-13T04:05:17;100430.63;;;13.02;100.00
48882;BME280;57063;51.406;-2.402;2023-07-13T04:07:42;100431.38;;;13.04;100.00
48882;BME280;57063;51.406;-2.402;2023-07-13T04:10:08;100431.19;;;13.07;100.00
48882;BME280;57063;51.406;-2.402;2023-07-13T04:12:34;100434.28;;;13.12;100.00
48882;BME280;57063;51.406;-2.402;2023-07-13T04:14:59;100435.19;;;13.11;100.00
48882;BME280;57063;51.406;-2.402;2023-07-13T04:17:24;100428.38;;;13.10;100.00
48882;BME280;57063;51.406;-2.402;2023-07-13T04:19:50;100439.47;;;13.12;100.00
48882;BME280;57063;51.406;-2.402;2023-07-13T04:22:15;100432.28;;;13.16;100.00
48882;BME280;57063;51.406;-2.402;2023-07-13T04:24:41;100438.94;;;13.20;100.00
48882;BME280;57063;51.406;-2.402;2023-07-13T04:27:06;100446.50;;;13.23;100.00
48882;BME280;57063;51.406;-2.402;2023-07-13T04:29:32;100446.22;;;13.27;100.00
48882;BME280;57063;51.406;-2.402;2023-07-13T04:31:57;100441.94;;;13.26;100.00
48882;BME280;57063;51.406;-2.402;2023-07-13T04:34:23;100440.00;;;13.30;100.00
48882;BME280;57063;51.406;-2.402;2023-07-13T04:36:49;100446.81;;;13.31;100.00
48882;BME280;57063;51.406;-2.402;2023-07-13T04:39:15;100447.47;;;13.35;100.00
48882;BME280;57063;51.406;-2.402;2023-07-13T04:41:40;100453.38;;;13.37;100.00
48882;BME280;57063;51.406;-2.402;2023-07-13T04:44:06;100461.97;;;13.37;100.00
48882;BME280;57063;51.406;-2.402;2023-07-13T04:46:31;100458.25;;;13.41;100.00
48882;BME280;57063;51.406;-2.402;2023-07-13T04:48:56;100457.19;;;13.44;100.00
48882;BME280;57063;51.406;-2.402;2023-07-13T04:51:23;100454.91;;;13.39;100.00
48882;BME280;57063;51.406;-2.402;2023-07-13T04:53:48;100458.13;;;13.43;100.00
48882;BME280;57063;51.406;-2.402;2023-07-13T04:56:14;100455.31;;;13.46;100.00
48882;BME280;57063;51.406;-2.402;2023-07-13T04:58:39;100455.84;;;13.51;100.00
48882;BME280;57063;51.406;-2.402;2023-07-13T05:01:06;100461.03;;;13.51;100.00
48882;BME280;57063;51.406;-2.402;2023-07-13T05:03:31;100454.38;;;13.47;100.00
48882;BME280;57063;51.406;-2.402;2023-07-13T05:05:58;100462.91;;;13.49;100.00
48882;BME280;57063;51.406;-2.402;2023-07-13T05:08:24;100460.91;;;13.53;100.00
48882;BME280;57063;51.406;-2.402;2023-07-13T05:10:50;100466.22;;;13.51;100.00
48882;BME280;57063;51.406;-2.402;2023-07-13T05:13:16;100462.34;;;13.57;100.00
48882;BME280;57063;51.406;-2.402;2023-07-13T05:15:41;100461.22;;;13.61;100.00
48882;BME280;57063;51.406;-2.402;2023-07-13T05:18:06;100464.81;;;13.71;100.00
48882;BME280;57063;51.406;-2.402;2023-07-13T05:20:32;100467.38;;;13.84;100.00
48882;BME280;57063;51.406;-2.402;2023-07-13T05:22:57;100458.50;;;13.99;100.00
48882;BME280;57063;51.406;-2.402;2023-07-13T05:25:23;100467.66;;;13.92;100.00
48882;BME280;57063;51.406;-2.402;2023-07-13T05:27:48;100461.47;;;13.82;100.00
48882;BME280;57063;51.406;-2.402;2023-07-13T05:30:14;100471.00;;;13.81;100.00
48882;BME280;57063;51.406;-2.402;2023-07-13T05:32:39;100470.09;;;13.69;100.00
48882;BME280;57063;51.406;-2.402;2023-07-13T05:35:05;100471.06;;;13.68;100.00
48882;BME280;57063;51.406;-2.402;2023-07-13T05:37:31;100469.19;;;13.70;100.00
48882;BME280;57063;51.406;-2.402;2023-07-13T05:39:56;100479.34;;;13.74;100.00
48882;BME280;57063;51.406;-2.402;2023-07-13T05:42:22;100482.53;;;13.77;100.00
48882;BME280;57063;51.406;-2.402;2023-07-13T05:44:47;100473.94;;;13.77;100.00
48882;BME280;57063;51.406;-2.402;2023-07-13T05:47:13;100483.03;;;13.82;100.00
48882;BME280;57063;51.406;-2.402;2023-07-13T05:49:40;100482.66;;;13.76;100.00
48882;BME280;57063;51.406;-2.402;2023-07-13T05:52:06;100483.03;;;13.82;100.00
48882;BME280;57063;51.406;-2.402;2023-07-13T05:54:31;100484.50;;;13.86;100.00
48882;BME280;57063;51.406;-2.402;2023-07-13T05:56:56;100492.19;;;13.88;100.00
48882;BME280;57063;51.406;-2.402;2023-07-13T05:59:22;100496.41;;;13.89;100.00
48882;BME280;57063;51.406;-2.402;2023-07-13T06:01:47;100502.31;;;13.91;100.00
48882;BME280;57063;51.406;-2.402;2023-07-13T06:04:12;100500.69;;;13.90;100.00
48882;BME280;57063;51.406;-2.402;2023-07-13T06:06:38;100508.97;;;13.95;100.00
48882;BME280;57063;51.406;-2.402;2023-07-13T06:09:03;100510.09;;;13.91;100.00
48882;BME280;57063;51.406;-2.402;2023-07-13T06:11:28;100512.59;;;13.93;100.00
48882;BME280;57063;51.406;-2.402;2023-07-13T06:13:55;100518.91;;;14.01;100.00
48882;BME280;57063;51.406;-2.402;2023-07-13T06:16:21;100517.75;;;14.05;100.00
48882;BME280;57063;51.406;-2.402;2023-07-13T06:18:46;100517.84;;;14.04;100.00
48882;BME280;57063;51.406;-2.402;2023-07-13T06:21:17;100514.22;;;14.06;100.00
48882;BME280;57063;51.406;-2.402;2023-07-13T06:23:44;100531.34;;;14.09;100.00
48882;BME280;57063;51.406;-2.402;2023-07-13T06:26:10;100528.72;;;14.22;100.00
48882;BME280;57063;51.406;-2.402;2023-07-13T06:28:36;100523.63;;;14.44;100.00
48882;BME280;57063;51.406;-2.402;2023-07-13T06:31:05;100528.19;;;15.24;100.00
48882;BME280;57063;51.406;-2.402;2023-07-13T06:33:31;100533.84;;;16.52;100.00
48882;BME280;57063;51.406;-2.402;2023-07-13T06:35:56;100541.19;;;16.90;100.00
48882;BME280;57063;51.406;-2.402;2023-07-13T06:38:21;100540.84;;;16.51;100.00
48882;BME280;57063;51.406;-2.402;2023-07-13T06:40:47;100541.00;;;15.95;100.00
48882;BME280;57063;51.406;-2.402;2023-07-13T06:43:12;100535.06;;;15.81;100.00
48882;BME280;57063;51.406;-2.402;2023-07-13T06:45:44;100546.78;;;15.76;100.00
48882;BME280;57063;51.406;-2.402;2023-07-13T06:48:11;100545.22;;;15.62;100.00
48882;BME280;57063;51.406;-2.402;2023-07-13T06:50:36;100536.25;;;15.89;100.00
48882;BME280;57063;51.406;-2.402;2023-07-13T06:53:02;100547.41;;;16.34;100.00
48882;BME280;57063;51.406;-2.402;2023-07-13T06:55:27;100550.94;;;17.91;97.48
48882;BME280;57063;51.406;-2.402;2023-07-13T06:57:52;100551.63;;;16.90;100.00
48882;BME280;57063;51.406;-2.402;2023-07-13T07:00:18;100557.22;;;16.42;100.00
48882;BME280;57063;51.406;-2.402;2023-07-13T07:02:44;100559.22;;;16.38;100.00
48882;BME280;57063;51.406;-2.402;2023-07-13T07:05:09;100554.06;;;16.27;100.00
48882;BME280;57063;51.406;-2.402;2023-07-13T07:07:35;100555.16;;;16.02;100.00
48882;BME280;57063;51.406;-2.402;2023-07-13T07:10:00;100556.34;;;15.87;100.00
48882;BME280;57063;51.406;-2.402;2023-07-13T07:12:26;100564.31;;;15.85;100.00
48882;BME280;57063;51.406;-2.402;2023-07-13T07:14:51;100567.81;;;15.61;100.00
48882;BME280;57063;51.406;-2.402;2023-07-13T07:17:17;100572.75;;;15.42;100.00
48882;BME280;57063;51.406;-2.402;2023-07-13T07:19:42;100579.63;;;15.54;100.00
48882;BME280;57063;51.406;-2.402;2023-07-13T07:22:07;100582.94;;;15.56;100.00
48882;BME280;57063;51.406;-2.402;2023-07-13T07:24:33;100580.22;;;15.47;100.00
48882;BME280;57063;51.406;-2.402;2023-07-13T07:26:58;100584.69;;;15.45;100.00
48882;BME280;57063;51.406;-2.402;2023-07-13T07:29:24;100588.47;;;15.40;100.00
48882;BME280;57063;51.406;-2.402;2023-07-13T07:31:51;100588.22;;;15.32;100.00
48882;BME280;57063;51.406;-2.402;2023-07-13T07:34:17;100586.78;;;15.28;100.00
48882;BME280;57063;51.406;-2.402;2023-07-13T07:36:42;100581.59;;;15.28;100.00
48882;BME280;57063;51.406;-2.402;2023-07-13T07:39:07;100583.75;;;15.34;100.00
48882;BME280;57063;51.406;-2.402;2023-07-13T07:41:33;100577.34;;;15.38;100.00
48882;BME280;57063;51.406;-2.402;2023-07-13T07:43:58;100580.19;;;15.35;100.00
48882;BME280;57063;51.406;-2.402;2023-07-13T07:46:23;100583.50;;;15.37;100.00
48882;BME280;57063;51.406;-2.402;2023-07-13T07:48:49;100585.66;;;15.44;100.00
48882;BME280;57063;51.406;-2.402;2023-07-13T07:51:14;100591.78;;;15.43;100.00
48882;BME280;57063;51.406;-2.402;2023-07-13T07:53:40;100587.75;;;15.27;100.00
48882;BME280;57063;51.406;-2.402;2023-07-13T07:56:05;100593.91;;;15.37;100.00
48882;BME280;57063;51.406;-2.402;2023-07-13T07:58:31;100588.47;;;15.29;100.00
48882;BME280;57063;51.406;-2.402;2023-07-13T08:01:04;100597.09;;;15.41;100.00
48882;BME280;57063;51.406;-2.402;2023-07-13T08:03:30;100593.47;;;15.44;100.00
48882;BME280;57063;51.406;-2.402;2023-07-13T08:05:55;100584.69;;;15.45;100.00
48882;BME280;57063;51.406;-2.402;2023-07-13T08:08:20;100589.69;;;15.59;100.00
48882;BME280;57063;51.406;-2.402;2023-07-13T08:10:46;100585.06;;;15.62;100.00
48882;BME280;57063;51.406;-2.402;2023-07-13T08:13:11;100591.38;;;15.71;100.00
48882;BME280;57063;51.406;-2.402;2023-07-13T08:15:37;100581.34;;;15.78;100.00
48882;BME280;57063;51.406;-2.402;2023-07-13T08:18:02;100587.34;;;15.90;100.00
48882;BME280;57063;51.406;-2.402;2023-07-13T08:20:28;100584.50;;;15.70;100.00
48882;BME280;57063;51.406;-2.402;2023-07-13T08:22:53;100589.63;;;15.83;100.00
48882;BME280;57063;51.406;-2.402;2023-07-13T08:25:18;100590.66;;;16.03;100.00
48882;BME280;57063;51.406;-2.402;2023-07-13T08:27:45;100591.34;;;16.16;100.00
48882;BME280;57063;51.406;-2.402;2023-07-13T08:30:11;100584.72;;;16.35;100.00
48882;BME280;57063;51.406;-2.402;2023-07-13T08:32:36;100581.84;;;16.49;100.00
48882;BME280;57063;51.406;-2.402;2023-07-13T08:35:03;100585.63;;;16.45;100.00
48882;BME280;57063;51.406;-2.402;2023-07-13T08:37:28;100583.28;;;16.42;100.00
48882;BME280;57063;51.406;-2.402;2023-07-13T08:39:54;100585.63;;;16.45;100.00
48882;BME280;57063;51.406;-2.402;2023-07-13T08:42:32;100585.44;;;16.25;100.00
48882;BME280;57063;51.406;-2.402;2023-07-13T08:45:13;100577.81;;;16.34;100.00
48882;BME280;57063;51.406;-2.402;2023-07-13T08:47:47;100576.69;;;16.15;100.00
48882;BME280;57063;51.406;-2.402;2023-07-13T08:50:15;100580.72;;;16.19;100.00
48882;BME280;57063;51.406;-2.402;2023-07-13T08:52:43;100580.13;;;16.16;100.00
48882;BME280;57063;51.406;-2.402;2023-07-13T08:55:15;100585.56;;;16.01;100.00
48882;BME280;57063;51.406;-2.402;2023-07-13T08:57:45;100591.84;;;16.10;100.00
48882;BME280;57063;51.406;-2.402;2023-07-13T09:00:12;100587.22;;;16.14;100.00
48882;BME280;57063;51.406;-2.402;2023-07-13T09:02:55;100582.13;;;16.23;100.00
48882;BME280;57063;51.406;-2.402;2023-07-13T09:05:40;100586.53;;;16.55;100.00
48882;BME280;57063;51.406;-2.402;2023-07-13T09:08:52;100583.94;;;17.20;100.00
48882;BME280;57063;51.406;-2.402;2023-07-13T09:17:05;100592.22;;;17.25;100.00
48882;BME280;57063;51.406;-2.402;2023-07-13T09:19:34;100587.09;;;17.44;100.00
48882;BME280;57063;51.406;-2.402;2023-07-13T09:22:03;100582.59;;;17.46;100.00
48882;BME280;57063;51.406;-2.402;2023-07-13T09:27:23;100587.69;;;17.79;100.00
48882;BME280;57063;51.406;-2.402;2023-07-13T09:29:55;100586.69;;;18.01;100.00
48882;BME280;57063;51.406;-2.402;2023-07-13T09:32:24;100584.06;;;19.19;100.00
48882;BME280;57063;51.406;-2.402;2023-07-13T09:34:55;100580.53;;;19.57;94.18
48882;BME280;57063;51.406;-2.402;2023-07-13T09:37:23;100580.38;;;19.69;96.15
48882;BME280;57063;51.406;-2.402;2023-07-13T09:39:52;100581.81;;;19.53;92.02
48882;BME280;57063;51.406;-2.402;2023-07-13T09:42:20;100578.69;;;19.20;88.97
48882;BME280;57063;51.406;-2.402;2023-07-13T09:44:58;100585.47;;;19.03;88.14
48882;BME280;57063;51.406;-2.402;2023-07-13T09:47:29;100586.28;;;19.04;90.61
48882;BME280;57063;51.406;-2.402;2023-07-13T09:49:57;100584.63;;;19.22;90.31
48882;BME280;57063;51.406;-2.402;2023-07-13T09:52:24;100588.09;;;19.60;87.76
48882;BME280;57063;51.406;-2.402;2023-07-13T09:54:51;100583.63;;;19.90;86.06
48882;BME280;57063;51.406;-2.402;2023-07-13T09:57:23;100592.94;;;20.02;81.92
48882;BME280;57063;51.406;-2.402;2023-07-13T09:59:50;100588.94;;;19.61;78.68
48882;BME280;57063;51.406;-2.402;2023-07-13T10:02:26;100603.28;;;19.57;84.25
48882;BME280;57063;51.406;-2.402;2023-07-13T10:04:57;100606.28;;;19.62;80.10
48882;BME280;57063;51.406;-2.402;2023-07-13T10:07:23;100616.75;;;19.72;78.73
48882;BME280;57063;51.406;-2.402;2023-07-13T10:09:56;100612.63;;;19.59;80.06
48882;BME280;57063;51.406;-2.402;2023-07-13T10:12:22;100611.19;;;19.28;86.13
48882;BME280;57063;51.406;-2.402;2023-07-13T10:14:55;100626.88;;;19.28;87.56
48882;BME280;57063;51.406;-2.402;2023-07-13T10:17:29;100624.84;;;18.92;88.01
48882;BME280;57063;51.406;-2.402;2023-07-13T10:19:59;100623.06;;;19.22;84.60
48882;BME280;57063;51.406;-2.402;2023-07-13T10:22:37;100613.53;;;19.11;80.90
48882;BME280;57063;51.406;-2.402;2023-07-13T10:25:17;100607.28;;;19.51;83.13
48882;BME280;57063;51.406;-2.402;2023-07-13T10:27:43;100625.63;;;19.51;79.07
48882;BME280;57063;51.406;-2.402;2023-07-13T10:30:17;100622.59;;;19.46;79.77
48882;BME280;57063;51.406;-2.402;2023-07-13T10:32:45;100630.84;;;19.51;77.16
48882;BME280;57063;51.406;-2.402;2023-07-13T10:35:13;100637.34;;;19.28;76.09
48882;BME280;57063;51.406;-2.402;2023-07-13T10:37:52;100638.06;;;19.00;76.38
48882;BME280;57063;51.406;-2.402;2023-07-13T10:40:32;100635.50;;;18.50;79.62
48882;BME280;57063;51.406;-2.402;2023-07-13T10:43:01;100632.22;;;18.68;78.54
48882;BME280;57063;51.406;-2.402;2023-07-13T10:45:28;100633.94;;;18.78;77.48
48882;BME280;57063;51.406;-2.402;2023-07-13T10:47:55;100627.59;;;18.81;74.06
48882;BME280;57063;51.406;-2.402;2023-07-13T10:50:23;100637.25;;;18.80;73.82
48882;BME280;57063;51.406;-2.402;2023-07-13T10:52:55;100629.81;;;19.05;74.10
48882;BME280;57063;51.406;-2.402;2023-07-13T10:58:22;100638.72;;;19.51;74.47
48882;BME280;57063;51.406;-2.402;2023-07-13T11:01:14;100625.78;;;19.87;71.50
48882;BME280;57063;51.406;-2.402;2023-07-13T11:08:51;100619.41;;;21.78;64.63
48882;BME280;57063;51.406;-2.402;2023-07-13T11:11:37;100615.03;;;21.61;61.56
48882;BME280;57063;51.406;-2.402;2023-07-13T11:14:25;100616.78;;;21.87;62.79
48882;BME280;57063;51.406;-2.402;2023-07-13T11:16:50;100610.09;;;21.92;59.75
48882;BME280;57063;51.406;-2.402;2023-07-13T11:22:10;100607.41;;;21.50;60.50
48882;BME280;57063;51.406;-2.402;2023-07-13T11:27:41;100615.19;;;21.15;64.37
48882;BME280;57063;51.406;-2.402;2023-07-13T11:30:25;100617.69;;;20.81;65.62
48882;BME280;57063;51.406;-2.402;2023-07-13T11:33:17;100621.47;;;20.51;68.28
48882;BME280;57063;51.406;-2.402;2023-07-13T11:36:03;100623.81;;;19.99;70.68
48882;BME280;57063;51.406;-2.402;2023-07-13T11:38:39;100628.63;;;19.56;71.55
48882;BME280;57063;51.406;-2.402;2023-07-13T11:41:21;100624.25;;;19.37;74.64
48882;BME280;57063;51.406;-2.402;2023-07-13T11:44:10;100630.28;;;19.48;73.48
48882;BME280;57063;51.406;-2.402;2023-07-13T11:46:35;100627.59;;;19.00;75.05
48882;BME280;57063;51.406;-2.402;2023-07-13T11:49:05;100622.66;;;19.07;72.50
48882;BME280;57063;51.406;-2.402;2023-07-13T11:51:33;100625.53;;;19.04;70.14
48882;BME280;57063;51.406;-2.402;2023-07-13T11:54:15;100630.22;;;18.91;72.02
48882;BME280;57063;51.406;-2.402;2023-07-13T11:56:44;100625.81;;;18.81;69.23
48882;BME280;57063;51.406;-2.402;2023-07-13T11:59:12;100628.28;;;18.83;70.19
48882;BME280;57063;51.406;-2.402;2023-07-13T12:01:44;100623.16;;;18.72;71.51
48882;BME280;57063;51.406;-2.402;2023-07-13T12:04:25;100619.47;;;18.84;71.58
48882;BME280;57063;51.406;-2.402;2023-07-13T12:07:16;100613.97;;;18.97;71.13
48882;BME280;57063;51.406;-2.402;2023-07-13T12:09:40;100616.84;;;18.84;71.75
48882;BME280;57063;51.406;-2.402;2023-07-13T12:12:29;100610.22;;;19.19;71.90
48882;BME280;57063;51.406;-2.402;2023-07-13T12:14:55;100618.53;;;19.14;70.77
48882;BME280;57063;51.406;-2.402;2023-07-13T12:17:23;100611.63;;;19.13;70.93
48882;BME280;57063;51.406;-2.402;2023-07-13T12:19:50;100614.34;;;19.31;71.08
48882;BME280;57063;51.406;-2.402;2023-07-13T12:22:18;100616.00;;;19.42;69.33
48882;BME280;57063;51.406;-2.402;2023-07-13T12:24:45;100609.78;;;19.43;69.66
48882;BME280;57063;51.406;-2.402;2023-07-13T12:27:22;100603.97;;;19.59;66.54
48882;BME280;57063;51.406;-2.402;2023-07-13T12:29:58;100604.25;;;19.56;65.58
48882;BME280;57063;51.406;-2.402;2023-07-13T12:32:25;100598.72;;;19.96;68.23
48882;BME280;57063;51.406;-2.402;2023-07-13T12:35:12;100598.47;;;20.45;67.56
48882;BME280;57063;51.406;-2.402;2023-07-13T12:37:47;100598.13;;;20.58;65.71
48882;BME280;57063;51.406;-2.402;2023-07-13T12:40:16;100598.66;;;21.23;63.10
48882;BME280;57063;51.406;-2.402;2023-07-13T12:42:46;100592.56;;;22.09;57.70
48882;BME280;57063;51.406;-2.402;2023-07-13T12:45:23;100583.22;;;22.98;56.96
48882;BME280;57063;51.406;-2.402;2023-07-13T12:47:54;100583.69;;;23.18;55.50
48882;BME280;57063;51.406;-2.402;2023-07-13T12:50:22;100603.09;;;23.25;55.18
48882;BME280;57063;51.406;-2.402;2023-07-13T12:52:53;100589.41;;;22.32;54.61
48882;BME280;57063;51.406;-2.402;2023-07-13T12:55:20;100596.16;;;22.00;56.88
48882;BME280;57063;51.406;-2.402;2023-07-13T12:57:52;100596.22;;;21.48;58.41
48882;BME280;57063;51.406;-2.402;2023-07-13T13:00:35;100588.53;;;21.28;60.28
48882;BME280;57063;51.406;-2.402;2023-07-13T13:03:30;100607.38;;;21.42;60.08
48882;BME280;57063;51.406;-2.402;2023-07-13T13:06:05;100601.84;;;21.09;59.91